sensor_id;sensor_type;location;lat;lon;timestamp;temperature;humidity
26745;DHT22;14342;50.960;13.880;2023-08-30T00:00:05;14.20;99.90
26745;DHT22;14342;50.960;13.880;2023-08-30T00:01:06;14.30;99.90
26745;DHT22;14342;50.960;13.880;2023-08-30T00:02:09;14.30;99.90
26745;DHT22;14342;50.960;13.880;2023-08-30T00:03:11;14.30;99.90
26745;DHT22;14342;50.960;13.880;2023-08-30T00:04:12;14.30;99.90
26745;DHT22;14342;50.960;13.880;2023-08-30T00:05:14;14.30;99.90
26745;DHT22;14342;50.960;13.880;2023-08-30T00:06:14;14.40;99.90
26745;DHT22;14342;50.960;13.880;2023-08-30T00:07:17;14.40;99.90
26745;DHT22;14342;50.960;13.880;2023-08-30T00:08:17;14.50;99.90
26745;DHT22;14342;50.960;13.880;2023-08-30T00:09:19;14.60;99.90
26745;DHT22;14342;50.960;13.880;2023-08-30T00:10:20;14.60;99.90
26745;DHT22;14342;50.960;13.880;2023-08-30T00:11:22;14.60;99.90
26745;DHT22;14342;50.960;13.880;2023-08-30T00:12:22;14.70;99.90
26745;DHT22;14342;50.960;13.880;2023-08-30T00:13:24;14.70;99.90
26745;DHT22;14342;50.960;13.880;2023-08-30T00:14:24;14.70;99.90
26745;DHT22;14342;50.960;13.880;2023-08-30T00:15:27;14.80;99.90
26745;DHT22;14342;50.960;13.880;2023-08-30T00:16:27;14.90;99.90
26745;DHT22;14342;50.960;13.880;2023-08-30T00:17:29;14.80;99.90
26745;DHT22;14342;50.960;13.880;2023-08-30T00:18:31;14.80;99.90
26745;DHT22;14342;50.960;13.880;2023-08-30T00:19:33;14.90;99.90
26745;DHT22;14342;50.960;13.880;2023-08-30T00:20:33;14.90;99.90
26745;DHT22;14342;50.960;13.880;2023-08-30T00:21:35;15.00;99.90
26745;DHT22;14342;50.960;13.880;2023-08-30T00:22:36;15.00;99.90
26745;DHT22;14342;50.960;13.880;2023-08-30T00:23:37;14.90;99.90
26745;DHT22;14342;50.960;13.880;2023-08-30T00:24:38;15.00;99.90
26745;DHT22;14342;50.960;13.880;2023-08-30T00:25:39;15.00;99.90
26745;DHT22;14342;50.960;13.880;2023-08-30T00:26:40;14.90;99.90
26745;DHT22;14342;50.960;13.880;2023-08-30T00:27:42;14.90;99.90
26745;DHT22;14342;50.960;13.880;2023-08-30T00:28:42;14.90;99.90
26745;DHT22;14342;50.960;13.880;2023-08-30T00:29:44;14.90;99.90
26745;DHT22;14342;50.960;13.880;2023-08-30T00:30:44;14.90;99.90
26745;DHT22;14342;50.960;13.880;2023-08-30T00:31:46;14.50;99.90
26745;DHT22;14342;50.960;13.880;2023-08-30T00:32:47;14.80;99.90
26745;DHT22;14342;50.960;13.880;2023-08-30T00:33:50;14.70;99.90
26745;DHT22;14342;50.960;13.880;2023-08-30T00:34:50;14.70;99.90
26745;DHT22;14342;50.960;13.880;2023-08-30T00:35:55;14.70;99.90
26745;DHT22;14342;50.960;13.880;2023-08-30T00:36:56;14.70;99.90
26745;DHT22;14342;50.960;13.880;2023-08-30T00:37:58;14.80;99.90
26745;DHT22;14342;50.960;13.880;2023-08-30T00:38:58;14.80;99.90
26745;DHT22;14342;50.960;13.880;2023-08-30T00:40:00;14.80;99.90
26745;DHT22;14342;50.960;13.880;2023-08-30T00:41:01;14.70;99.90
26745;DHT22;14342;50.960;13.880;2023-08-30T00:42:02;14.70;99.90
26745;DHT22;14342;50.960;13.880;2023-08-30T00:43:07;14.80;99.90
26745;DHT22;14342;50.960;13.880;2023-08-30T00:44:10;14.80;99.90
26745;DHT22;14342;50.960;13.880;2023-08-30T00:45:10;14.90;99.90
26745;DHT22;14342;50.960;13.880;2023-08-30T00:46:12;14.80;99.90
26745;DHT22;14342;50.960;13.880;2023-08-30T00:47:13;14.80;99.90
26745;DHT22;14342;50.960;13.880;2023-08-30T00:48:15;14.80;99.90
26745;DHT22;14342;50.960;13.880;2023-08-30T00:49:17;14.70;99.90
26745;DHT22;14342;50.960;13.880;2023-08-30T00:50:19;14.60;99.90
26745;DHT22;14342;50.960;13.880;2023-08-30T00:51:20;14.50;99.90
26745;DHT22;14342;50.960;13.880;2023-08-30T00:52:22;14.60;99.90
26745;DHT22;14342;50.960;13.880;2023-08-30T00:53:22;14.60;99.90
26745;DHT22;14342;50.960;13.880;2023-08-30T00:54:24;14.50;99.90
26745;DHT22;14342;50.960;13.880;2023-08-30T00:55:25;14.40;99.90
26745;DHT22;14342;50.960;13.880;2023-08-30T00:56:26;14.50;99.90
26745;DHT22;14342;50.960;13.880;2023-08-30T00:57:27;14.50;99.90
26745;DHT22;14342;50.960;13.880;2023-08-30T00:58:29;14.60;99.90
26745;DHT22;14342;50.960;13.880;2023-08-30T00:59:30;14.60;99.90
26745;DHT22;14342;50.960;13.880;2023-08-30T01:00:33;14.60;99.90
26745;DHT22;14342;50.960;13.880;2023-08-30T01:01:34;14.60;99.90
26745;DHT22;14342;50.960;13.880;2023-08-30T01:02:35;14.70;99.90
26745;DHT22;14342;50.960;13.880;2023-08-30T01:03:36;14.70;99.90
26745;DHT22;14342;50.960;13.880;2023-08-30T01:04:40;14.80;99.90
26745;DHT22;14342;50.960;13.880;2023-08-30T01:05:40;14.80;99.90
26745;DHT22;14342;50.960;13.880;2023-08-30T01:06:42;14.90;99.90
26745;DHT22;14342;50.960;13.880;2023-08-30T01:07:42;14.90;99.90
26745;DHT22;14342;50.960;13.880;2023-08-30T01:08:44;15.00;99.90
26745;DHT22;14342;50.960;13.880;2023-08-30T01:09:45;15.10;99.90
26745;DHT22;14342;50.960;13.880;2023-08-30T01:10:49;15.10;99.90
26745;DHT22;14342;50.960;13.880;2023-08-30T01:11:55;15.20;99.90
26745;DHT22;14342;50.960;13.880;2023-08-30T01:13:00;15.20;99.90
26745;DHT22;14342;50.960;13.880;2023-08-30T01:14:08;15.20;99.90
26745;DHT22;14342;50.960;13.880;2023-08-30T01:15:10;15.10;99.90
26745;DHT22;14342;50.960;13.880;2023-08-30T01:16:13;15.10;99.90
26745;DHT22;14342;50.960;13.880;2023-08-30T01:17:15;15.10;99.90
26745;DHT22;14342;50.960;13.880;2023-08-30T01:18:17;15.10;99.90
26745;DHT22;14342;50.960;13.880;2023-08-30T01:19:25;15.10;99.90
26745;DHT22;14342;50.960;13.880;2023-08-30T01:20:28;15.00;99.90
26745;DHT22;14342;50.960;13.880;2023-08-30T01:21:30;15.10;99.90
26745;DHT22;14342;50.960;13.880;2023-08-30T01:22:38;15.10;99.90
26745;DHT22;14342;50.960;13.880;2023-08-30T01:23:42;15.00;99.90
26745;DHT22;14342;50.960;13.880;2023-08-30T01:24:50;15.00;99.90
26745;DHT22;14342;50.960;13.880;2023-08-30T01:25:53;14.90;99.90
26745;DHT22;14342;50.960;13.880;2023-08-30T01:27:05;14.80;99.90
26745;DHT22;14342;50.960;13.880;2023-08-30T01:28:08;14.80;99.90
26745;DHT22;14342;50.960;13.880;2023-08-30T01:29:10;14.70;99.90
26745;DHT22;14342;50.960;13.880;2023-08-30T01:30:11;14.40;99.90
26745;DHT22;14342;50.960;13.880;2023-08-30T01:31:14;14.70;99.90
26745;DHT22;14342;50.960;13.880;2023-08-30T01:32:16;14.70;99.90
26745;DHT22;14342;50.960;13.880;2023-08-30T01:33:17;14.70;99.90
26745;DHT22;14342;50.960;13.880;2023-08-30T01:34:19;14.70;99.90
26745;DHT22;14342;50.960;13.880;2023-08-30T01:35:20;14.60;99.90
26745;DHT22;14342;50.960;13.880;2023-08-30T01:36:22;14.60;99.90
26745;DHT22;14342;50.960;13.880;2023-08-30T01:37:23;14.50;99.90
26745;DHT22;14342;50.960;13.880;2023-08-30T01:38:24;14.50;99.90
26745;DHT22;14342;50.960;13.880;2023-08-30T01:39:26;14.50;99.90
26745;DHT22;14342;50.960;13.880;2023-08-30T01:40:28;14.50;99.90
26745;DHT22;14342;50.960;13.880;2023-08-30T01:41:30;14.40;99.90
26745;DHT22;14342;50.960;13.880;2023-08-30T01:42:32;14.40;99.90
26745;DHT22;14342;50.960;13.880;2023-08-30T01:43:34;14.50;99.90
26745;DHT22;14342;50.960;13.880;2023-08-30T01:44:36;14.60;99.90
26745;DHT22;14342;50.960;13.880;2023-08-30T01:45:39;14.60;99.90
26745;DHT22;14342;50.960;13.880;2023-08-30T01:46:41;14.60;99.90
26745;DHT22;14342;50.960;13.880;2023-08-30T01:47:43;14.40;99.90
26745;DHT22;14342;50.960;13.880;2023-08-30T01:48:46;14.50;99.90
26745;DHT22;14342;50.960;13.880;2023-08-30T01:49:46;14.70;99.90
26745;DHT22;14342;50.960;13.880;2023-08-30T01:50:48;14.80;99.90
26745;DHT22;14342;50.960;13.880;2023-08-30T01:51:49;14.80;99.90
26745;DHT22;14342;50.960;13.880;2023-08-30T01:52:51;14.80;99.90
26745;DHT22;14342;50.960;13.880;2023-08-30T01:53:53;14.70;99.90
26745;DHT22;14342;50.960;13.880;2023-08-30T01:54:54;14.70;99.90
26745;DHT22;14342;50.960;13.880;2023-08-30T01:55:56;14.60;99.90
26745;DHT22;14342;50.960;13.880;2023-08-30T01:56:57;14.70;99.90
26745;DHT22;14342;50.960;13.880;2023-08-30T01:58:00;14.70;99.90
26745;DHT22;14342;50.960;13.880;2023-08-30T01:59:01;14.60;99.90
26745;DHT22;14342;50.960;13.880;2023-08-30T02:00:03;14.50;99.90
26745;DHT22;14342;50.960;13.880;2023-08-30T02:01:05;14.50;99.90
26745;DHT22;14342;50.960;13.880;2023-08-30T02:02:06;14.50;99.90
26745;DHT22;14342;50.960;13.880;2023-08-30T02:03:08;14.40;99.90
26745;DHT22;14342;50.960;13.880;2023-08-30T02:04:10;14.40;99.90
26745;DHT22;14342;50.960;13.880;2023-08-30T02:05:10;14.50;99.90
26745;DHT22;14342;50.960;13.880;2023-08-30T02:06:13;14.50;99.90
26745;DHT22;14342;50.960;13.880;2023-08-30T02:07:16;14.50;99.90
26745;DHT22;14342;50.960;13.880;2023-08-30T02:08:18;14.50;99.90
26745;DHT22;14342;50.960;13.880;2023-08-30T02:09:21;14.50;99.90
26745;DHT22;14342;50.960;13.880;2023-08-30T02:10:24;14.50;99.90
26745;DHT22;14342;50.960;13.880;2023-08-30T02:11:26;14.60;99.90
26745;DHT22;14342;50.960;13.880;2023-08-30T02:12:30;14.60;99.90
26745;DHT22;14342;50.960;13.880;2023-08-30T02:13:33;14.60;99.90
26745;DHT22;14342;50.960;13.880;2023-08-30T02:14:36;14.60;99.90
26745;DHT22;14342;50.960;13.880;2023-08-30T02:15:37;14.50;99.90
26745;DHT22;14342;50.960;13.880;2023-08-30T02:16:41;14.50;99.90
26745;DHT22;14342;50.960;13.880;2023-08-30T02:17:42;14.50;99.90
26745;DHT22;14342;50.960;13.880;2023-08-30T02:18:44;14.50;99.90
26745;DHT22;14342;50.960;13.880;2023-08-30T02:19:45;14.40;99.90
26745;DHT22;14342;50.960;13.880;2023-08-30T02:20:46;14.50;99.90
26745;DHT22;14342;50.960;13.880;2023-08-30T02:21:48;14.50;99.90
26745;DHT22;14342;50.960;13.880;2023-08-30T02:22:48;14.40;99.90
26745;DHT22;14342;50.960;13.880;2023-08-30T02:23:50;14.40;99.90
26745;DHT22;14342;50.960;13.880;2023-08-30T02:24:51;14.50;99.90
26745;DHT22;14342;50.960;13.880;2023-08-30T02:25:53;14.30;99.90
26745;DHT22;14342;50.960;13.880;2023-08-30T02:26:55;14.30;99.90
26745;DHT22;14342;50.960;13.880;2023-08-30T02:27:56;14.30;99.90
26745;DHT22;14342;50.960;13.880;2023-08-30T02:28:58;14.40;99.90
26745;DHT22;14342;50.960;13.880;2023-08-30T02:29:59;14.40;99.90
26745;DHT22;14342;50.960;13.880;2023-08-30T02:31:00;14.50;99.90
26745;DHT22;14342;50.960;13.880;2023-08-30T02:32:01;14.60;99.90
26745;DHT22;14342;50.960;13.880;2023-08-30T02:33:02;14.50;99.90
26745;DHT22;14342;50.960;13.880;2023-08-30T02:34:04;14.50;99.90
26745;DHT22;14342;50.960;13.880;2023-08-30T02:35:05;14.50;99.90
26745;DHT22;14342;50.960;13.880;2023-08-30T02:36:07;14.50;99.90
26745;DHT22;14342;50.960;13.880;2023-08-30T02:37:08;14.60;99.90
26745;DHT22;14342;50.960;13.880;2023-08-30T02:38:10;14.70;99.90
26745;DHT22;14342;50.960;13.880;2023-08-30T02:39:13;14.90;99.90
26745;DHT22;14342;50.960;13.880;2023-08-30T02:40:14;14.90;99.90
26745;DHT22;14342;50.960;13.880;2023-08-30T02:41:16;14.90;99.90
26745;DHT22;14342;50.960;13.880;2023-08-30T02:42:16;14.50;99.90
26745;DHT22;14342;50.960;13.880;2023-08-30T02:43:18;14.90;99.90
26745;DHT22;14342;50.960;13.880;2023-08-30T02:44:20;14.90;99.90
26745;DHT22;14342;50.960;13.880;2023-08-30T02:45:22;14.90;99.90
26745;DHT22;14342;50.960;13.880;2023-08-30T02:46:22;15.00;99.90
26745;DHT22;14342;50.960;13.880;2023-08-30T02:47:24;15.10;99.90
26745;DHT22;14342;50.960;13.880;2023-08-30T02:48:24;15.10;99.90
26745;DHT22;14342;50.960;13.880;2023-08-30T02:49:26;15.20;99.90
26745;DHT22;14342;50.960;13.880;2023-08-30T02:50:26;15.10;99.90
26745;DHT22;14342;50.960;13.880;2023-08-30T02:51:28;15.20;99.90
26745;DHT22;14342;50.960;13.880;2023-08-30T02:52:29;15.30;99.90
26745;DHT22;14342;50.960;13.880;2023-08-30T02:53:30;15.30;99.90
26745;DHT22;14342;50.960;13.880;2023-08-30T02:54:31;15.40;99.90
26745;DHT22;14342;50.960;13.880;2023-08-30T02:55:32;15.40;99.90
26745;DHT22;14342;50.960;13.880;2023-08-30T02:56:33;15.40;99.90
26745;DHT22;14342;50.960;13.880;2023-08-30T02:57:34;15.50;99.90
26745;DHT22;14342;50.960;13.880;2023-08-30T02:58:35;15.50;99.90
26745;DHT22;14342;50.960;13.880;2023-08-30T02:59:38;15.50;99.90
26745;DHT22;14342;50.960;13.880;2023-08-30T03:00:39;15.50;99.90
26745;DHT22;14342;50.960;13.880;2023-08-30T03:01:39;15.60;99.90
26745;DHT22;14342;50.960;13.880;2023-08-30T03:02:41;15.50;99.90
26745;DHT22;14342;50.960;13.880;2023-08-30T03:03:41;15.60;99.90
26745;DHT22;14342;50.960;13.880;2023-08-30T03:04:42;15.50;99.90
26745;DHT22;14342;50.960;13.880;2023-08-30T03:05:44;15.50;99.90
26745;DHT22;14342;50.960;13.880;2023-08-30T03:06:44;15.40;99.90
26745;DHT22;14342;50.960;13.880;2023-08-30T03:07:46;15.40;99.90
26745;DHT22;14342;50.960;13.880;2023-08-30T03:08:47;15.40;99.90
26745;DHT22;14342;50.960;13.880;2023-08-30T03:09:51;15.40;99.90
26745;DHT22;14342;50.960;13.880;2023-08-30T03:10:52;15.30;99.90
26745;DHT22;14342;50.960;13.880;2023-08-30T03:11:53;15.30;99.90
26745;DHT22;14342;50.960;13.880;2023-08-30T03:12:54;15.30;99.90
26745;DHT22;14342;50.960;13.880;2023-08-30T03:13:56;15.30;99.90
26745;DHT22;14342;50.960;13.880;2023-08-30T03:14:58;15.60;99.90
26745;DHT22;14342;50.960;13.880;2023-08-30T03:15:59;15.20;99.90
26745;DHT22;14342;50.960;13.880;2023-08-30T03:17:00;15.30;99.90
26745;DHT22;14342;50.960;13.880;2023-08-30T03:18:02;15.30;99.90
26745;DHT22;14342;50.960;13.880;2023-08-30T03:19:02;15.30;99.90
26745;DHT22;14342;50.960;13.880;2023-08-30T03:20:04;15.40;99.90
26745;DHT22;14342;50.960;13.880;2023-08-30T03:21:05;15.30;99.90
26745;DHT22;14342;50.960;13.880;2023-08-30T03:22:07;15.40;99.90
26745;DHT22;14342;50.960;13.880;2023-08-30T03:23:08;15.40;99.90
26745;DHT22;14342;50.960;13.880;2023-08-30T03:24:09;15.30;99.90
26745;DHT22;14342;50.960;13.880;2023-08-30T03:25:10;15.30;99.90
26745;DHT22;14342;50.960;13.880;2023-08-30T03:26:11;15.30;99.90
26745;DHT22;14342;50.960;13.880;2023-08-30T03:27:13;15.30;99.90
26745;DHT22;14342;50.960;13.880;2023-08-30T03:28:14;15.30;99.90
26745;DHT22;14342;50.960;13.880;2023-08-30T03:29:15;15.30;99.90
26745;DHT22;14342;50.960;13.880;2023-08-30T03:30:17;15.30;99.90
26745;DHT22;14342;50.960;13.880;2023-08-30T03:31:19;15.30;99.90
26745;DHT22;14342;50.960;13.880;2023-08-30T03:32:20;15.40;99.90
26745;DHT22;14342;50.960;13.880;2023-08-30T03:33:21;15.40;99.90
26745;DHT22;14342;50.960;13.880;2023-08-30T03:34:22;15.40;99.90
26745;DHT22;14342;50.960;13.880;2023-08-30T03:35:24;15.50;99.90
26745;DHT22;14342;50.960;13.880;2023-08-30T03:36:24;15.50;99.90
26745;DHT22;14342;50.960;13.880;2023-08-30T03:37:26;15.50;99.90
26745;DHT22;14342;50.960;13.880;2023-08-30T03:38:26;15.50;99.90
26745;DHT22;14342;50.960;13.880;2023-08-30T03:39:28;15.60;99.90
26745;DHT22;14342;50.960;13.880;2023-08-30T03:40:29;15.60;99.90
26745;DHT22;14342;50.960;13.880;2023-08-30T03:41:30;15.70;99.90
26745;DHT22;14342;50.960;13.880;2023-08-30T03:42:31;15.90;99.90
26745;DHT22;14342;50.960;13.880;2023-08-30T03:43:33;15.70;99.90
26745;DHT22;14342;50.960;13.880;2023-08-30T03:44:34;15.70;99.90
26745;DHT22;14342;50.960;13.880;2023-08-30T03:45:37;15.60;99.90
26745;DHT22;14342;50.960;13.880;2023-08-30T03:46:37;15.50;99.90
26745;DHT22;14342;50.960;13.880;2023-08-30T03:47:39;15.60;99.90
26745;DHT22;14342;50.960;13.880;2023-08-30T03:48:40;15.50;99.90
26745;DHT22;14342;50.960;13.880;2023-08-30T03:49:41;15.40;99.90
26745;DHT22;14342;50.960;13.880;2023-08-30T03:50:43;15.50;99.90
26745;DHT22;14342;50.960;13.880;2023-08-30T03:51:45;15.50;99.90
26745;DHT22;14342;50.960;13.880;2023-08-30T03:52:45;15.50;99.90
26745;DHT22;14342;50.960;13.880;2023-08-30T03:53:47;15.50;99.90
26745;DHT22;14342;50.960;13.880;2023-08-30T03:54:48;15.40;99.90
26745;DHT22;14342;50.960;13.880;2023-08-30T03:55:49;15.30;99.90
26745;DHT22;14342;50.960;13.880;2023-08-30T03:56:50;15.30;99.90
26745;DHT22;14342;50.960;13.880;2023-08-30T03:57:51;15.30;99.90
26745;DHT22;14342;50.960;13.880;2023-08-30T03:58:52;15.30;99.90
26745;DHT22;14342;50.960;13.880;2023-08-30T03:59:54;15.30;99.90
26745;DHT22;14342;50.960;13.880;2023-08-30T04:00:56;15.40;99.90
26745;DHT22;14342;50.960;13.880;2023-08-30T04:01:57;15.40;99.90
26745;DHT22;14342;50.960;13.880;2023-08-30T04:02:58;15.40;99.90
26745;DHT22;14342;50.960;13.880;2023-08-30T04:04:00;15.40;99.90
26745;DHT22;14342;50.960;13.880;2023-08-30T04:05:00;15.40;99.90
26745;DHT22;14342;50.960;13.880;2023-08-30T04:06:02;15.40;99.90
26745;DHT22;14342;50.960;13.880;2023-08-30T04:07:03;15.40;99.90
26745;DHT22;14342;50.960;13.880;2023-08-30T04:08:05;15.40;99.90
26745;DHT22;14342;50.960;13.880;2023-08-30T04:09:06;15.30;99.90
26745;DHT22;14342;50.960;13.880;2023-08-30T04:10:08;15.20;99.90
26745;DHT22;14342;50.960;13.880;2023-08-30T04:11:09;15.20;99.90
26745;DHT22;14342;50.960;13.880;2023-08-30T04:12:10;15.20;99.90
26745;DHT22;14342;50.960;13.880;2023-08-30T04:13:11;15.20;99.90
26745;DHT22;14342;50.960;13.880;2023-08-30T04:14:12;15.20;99.90
26745;DHT22;14342;50.960;13.880;2023-08-30T04:15:13;15.10;99.90
26745;DHT22;14342;50.960;13.880;2023-08-30T04:16:16;14.90;99.90
26745;DHT22;14342;50.960;13.880;2023-08-30T04:17:17;14.90;99.90
26745;DHT22;14342;50.960;13.880;2023-08-30T04:18:19;14.80;99.90
26745;DHT22;14342;50.960;13.880;2023-08-30T04:19:19;14.80;99.90
26745;DHT22;14342;50.960;13.880;2023-08-30T04:20:21;14.80;99.90
26745;DHT22;14342;50.960;13.880;2023-08-30T04:21:21;14.80;99.90
26745;DHT22;14342;50.960;13.880;2023-08-30T04:22:23;14.80;99.90
26745;DHT22;14342;50.960;13.880;2023-08-30T04:23:24;14.80;99.90
26745;DHT22;14342;50.960;13.880;2023-08-30T04:24:24;14.90;99.90
26745;DHT22;14342;50.960;13.880;2023-08-30T04:25:26;14.90;99.90
26745;DHT22;14342;50.960;13.880;2023-08-30T04:26:27;14.90;99.90
26745;DHT22;14342;50.960;13.880;2023-08-30T04:27:28;14.90;99.90
26745;DHT22;14342;50.960;13.880;2023-08-30T04:28:29;15.00;99.90
26745;DHT22;14342;50.960;13.880;2023-08-30T04:29:30;15.00;99.90
26745;DHT22;14342;50.960;13.880;2023-08-30T04:30:31;14.90;99.90
26745;DHT22;14342;50.960;13.880;2023-08-30T04:31:35;15.00;99.90
26745;DHT22;14342;50.960;13.880;2023-08-30T04:32:35;15.00;99.90
26745;DHT22;14342;50.960;13.880;2023-08-30T04:33:37;15.10;99.90
26745;DHT22;14342;50.960;13.880;2023-08-30T04:34:37;15.00;99.90
26745;DHT22;14342;50.960;13.880;2023-08-30T04:35:39;15.10;99.90
26745;DHT22;14342;50.960;13.880;2023-08-30T04:36:40;15.10;99.90
26745;DHT22;14342;50.960;13.880;2023-08-30T04:37:41;15.10;99.90
26745;DHT22;14342;50.960;13.880;2023-08-30T04:38:43;15.00;99.90
26745;DHT22;14342;50.960;13.880;2023-08-30T04:39:46;15.00;99.90
26745;DHT22;14342;50.960;13.880;2023-08-30T04:40:47;15.10;99.90
26745;DHT22;14342;50.960;13.880;2023-08-30T04:41:49;15.30;99.90
26745;DHT22;14342;50.960;13.880;2023-08-30T04:42:49;15.20;99.90
26745;DHT22;14342;50.960;13.880;2023-08-30T04:43:51;15.30;99.90
26745;DHT22;14342;50.960;13.880;2023-08-30T04:44:52;15.40;99.90
26745;DHT22;14342;50.960;13.880;2023-08-30T04:45:54;15.40;99.90
26745;DHT22;14342;50.960;13.880;2023-08-30T04:46:57;15.40;99.90
26745;DHT22;14342;50.960;13.880;2023-08-30T04:47:58;15.40;99.90
26745;DHT22;14342;50.960;13.880;2023-08-30T04:48:59;15.50;99.90
26745;DHT22;14342;50.960;13.880;2023-08-30T04:50:00;15.50;99.90
26745;DHT22;14342;50.960;13.880;2023-08-30T04:51:02;15.60;99.90
26745;DHT22;14342;50.960;13.880;2023-08-30T04:52:04;15.60;99.90
26745;DHT22;14342;50.960;13.880;2023-08-30T04:53:05;15.70;99.90
26745;DHT22;14342;50.960;13.880;2023-08-30T04:54:06;15.70;99.90
26745;DHT22;14342;50.960;13.880;2023-08-30T04:55:08;15.70;99.90
26745;DHT22;14342;50.960;13.880;2023-08-30T04:56:12;15.80;99.90
26745;DHT22;14342;50.960;13.880;2023-08-30T04:57:14;15.80;99.90
26745;DHT22;14342;50.960;13.880;2023-08-30T04:58:16;15.80;99.90
26745;DHT22;14342;50.960;13.880;2023-08-30T04:59:17;15.80;99.90
26745;DHT22;14342;50.960;13.880;2023-08-30T05:00:18;15.80;99.90
26745;DHT22;14342;50.960;13.880;2023-08-30T05:01:20;15.80;99.90
26745;DHT22;14342;50.960;13.880;2023-08-30T05:02:23;15.90;99.90
26745;DHT22;14342;50.960;13.880;2023-08-30T05:03:24;15.90;99.90
26745;DHT22;14342;50.960;13.880;2023-08-30T05:04:25;16.00;99.90
26745;DHT22;14342;50.960;13.880;2023-08-30T05:05:26;16.20;99.90
26745;DHT22;14342;50.960;13.880;2023-08-30T05:06:27;16.00;99.90
26745;DHT22;14342;50.960;13.880;2023-08-30T05:07:28;16.00;99.90
26745;DHT22;14342;50.960;13.880;2023-08-30T05:08:29;16.00;99.90
26745;DHT22;14342;50.960;13.880;2023-08-30T05:09:31;16.00;99.90
26745;DHT22;14342;50.960;13.880;2023-08-30T05:10:32;16.00;99.90
26745;DHT22;14342;50.960;13.880;2023-08-30T05:11:34;16.00;99.90
26745;DHT22;14342;50.960;13.880;2023-08-30T05:12:35;16.00;99.90
26745;DHT22;14342;50.960;13.880;2023-08-30T05:13:36;16.10;99.90
26745;DHT22;14342;50.960;13.880;2023-08-30T05:14:37;16.10;99.90
26745;DHT22;14342;50.960;13.880;2023-08-30T05:15:39;16.10;99.90
26745;DHT22;14342;50.960;13.880;2023-08-30T05:16:39;16.10;99.90
26745;DHT22;14342;50.960;13.880;2023-08-30T05:17:42;16.20;99.90
26745;DHT22;14342;50.960;13.880;2023-08-30T05:18:43;16.20;99.90
26745;DHT22;14342;50.960;13.880;2023-08-30T05:19:44;16.20;99.90
26745;DHT22;14342;50.960;13.880;2023-08-30T05:20:45;16.20;99.90
26745;DHT22;14342;50.960;13.880;2023-08-30T05:21:46;16.20;99.90
26745;DHT22;14342;50.960;13.880;2023-08-30T05:22:47;16.30;99.90
26745;DHT22;14342;50.960;13.880;2023-08-30T05:23:49;16.30;99.90
26745;DHT22;14342;50.960;13.880;2023-08-30T05:24:49;16.30;99.90
26745;DHT22;14342;50.960;13.880;2023-08-30T05:25:51;16.30;99.90
26745;DHT22;14342;50.960;13.880;2023-08-30T05:26:52;16.20;99.90
26745;DHT22;14342;50.960;13.880;2023-08-30T05:27:52;16.20;99.90
26745;DHT22;14342;50.960;13.880;2023-08-30T05:28:54;16.30;99.90
26745;DHT22;14342;50.960;13.880;2023-08-30T05:29:54;16.20;99.90
26745;DHT22;14342;50.960;13.880;2023-08-30T05:30:56;16.10;99.90
26745;DHT22;14342;50.960;13.880;2023-08-30T05:31:58;16.10;99.90
26745;DHT22;14342;50.960;13.880;2023-08-30T05:33:00;16.10;99.90
26745;DHT22;14342;50.960;13.880;2023-08-30T05:34:02;16.10;99.90
26745;DHT22;14342;50.960;13.880;2023-08-30T05:35:03;16.10;99.90
26745;DHT22;14342;50.960;13.880;2023-08-30T05:36:04;16.10;99.90
26745;DHT22;14342;50.960;13.880;2023-08-30T05:37:06;16.10;99.90
26745;DHT22;14342;50.960;13.880;2023-08-30T05:38:07;16.10;99.90
26745;DHT22;14342;50.960;13.880;2023-08-30T05:39:08;16.10;99.90
26745;DHT22;14342;50.960;13.880;2023-08-30T05:40:09;16.20;99.90
26745;DHT22;14342;50.960;13.880;2023-08-30T05:41:11;16.20;99.90
26745;DHT22;14342;50.960;13.880;2023-08-30T05:42:11;16.20;99.90
26745;DHT22;14342;50.960;13.880;2023-08-30T05:43:13;16.20;99.90
26745;DHT22;14342;50.960;13.880;2023-08-30T05:44:14;16.30;99.90
26745;DHT22;14342;50.960;13.880;2023-08-30T05:45:15;16.30;99.90
26745;DHT22;14342;50.960;13.880;2023-08-30T05:46:16;16.40;99.90
26745;DHT22;14342;50.960;13.880;2023-08-30T05:47:17;16.40;99.90
26745;DHT22;14342;50.960;13.880;2023-08-30T05:48:20;16.40;99.90
26745;DHT22;14342;50.960;13.880;2023-08-30T05:49:21;16.50;99.90
26745;DHT22;14342;50.960;13.880;2023-08-30T05:50:22;16.40;99.90
26745;DHT22;14342;50.960;13.880;2023-08-30T05:51:23;16.30;99.90
26745;DHT22;14342;50.960;13.880;2023-08-30T05:52:25;16.40;99.90
26745;DHT22;14342;50.960;13.880;2023-08-30T05:53:25;16.40;99.90
26745;DHT22;14342;50.960;13.880;2023-08-30T05:54:27;16.40;99.90
26745;DHT22;14342;50.960;13.880;2023-08-30T05:55:30;16.50;99.90
26745;DHT22;14342;50.960;13.880;2023-08-30T05:56:30;16.50;99.90
26745;DHT22;14342;50.960;13.880;2023-08-30T05:57:32;16.50;99.90
26745;DHT22;14342;50.960;13.880;2023-08-30T05:58:33;16.60;99.90
26745;DHT22;14342;50.960;13.880;2023-08-30T05:59:34;16.50;99.90
26745;DHT22;14342;50.960;13.880;2023-08-30T06:00:36;16.50;99.90
26745;DHT22;14342;50.960;13.880;2023-08-30T06:01:37;16.50;99.90
26745;DHT22;14342;50.960;13.880;2023-08-30T06:02:37;16.40;99.90
26745;DHT22;14342;50.960;13.880;2023-08-30T06:03:40;16.40;99.90
26745;DHT22;14342;50.960;13.880;2023-08-30T06:04:41;16.40;99.90
26745;DHT22;14342;50.960;13.880;2023-08-30T06:05:42;16.50;99.90
26745;DHT22;14342;50.960;13.880;2023-08-30T06:06:43;16.30;99.90
26745;DHT22;14342;50.960;13.880;2023-08-30T06:07:45;16.20;99.90
26745;DHT22;14342;50.960;13.880;2023-08-30T06:08:45;16.10;99.90
26745;DHT22;14342;50.960;13.880;2023-08-30T06:09:46;16.10;99.90
26745;DHT22;14342;50.960;13.880;2023-08-30T06:10:48;16.10;99.90
26745;DHT22;14342;50.960;13.880;2023-08-30T06:11:48;16.10;99.90
26745;DHT22;14342;50.960;13.880;2023-08-30T06:12:50;16.10;99.90
26745;DHT22;14342;50.960;13.880;2023-08-30T06:13:50;16.10;99.90
26745;DHT22;14342;50.960;13.880;2023-08-30T06:14:52;16.10;99.90
26745;DHT22;14342;50.960;13.880;2023-08-30T06:15:53;16.10;99.90
26745;DHT22;14342;50.960;13.880;2023-08-30T06:16:54;16.10;99.90
26745;DHT22;14342;50.960;13.880;2023-08-30T06:17:55;16.00;99.90
26745;DHT22;14342;50.960;13.880;2023-08-30T06:18:58;16.00;99.90
26745;DHT22;14342;50.960;13.880;2023-08-30T06:19:59;16.00;99.90
26745;DHT22;14342;50.960;13.880;2023-08-30T06:21:01;16.00;99.90
26745;DHT22;14342;50.960;13.880;2023-08-30T06:22:01;15.90;99.90